Umar1 — 9HA2498 — position and weather

sailwx.info

Track history (hours):
 
Tides and Currents Weather Stations Pressure Air Temp Water Temp Dewpoint Dewpoint Depression Visibility Wind Speed Wind Dir Waves Ship Positions

Umar1

Last reported at 2017-Nov-12 21:01 UTC. Time now 2017-Nov-17 17:50 UTC.
Position N 36°04' W 005°22'.

Length 100 m; draft 4.5 m.

Type: Tanker. MMSI: 248751000.

Date/timePositionNaut miles runAvg speedWind from/ knotsBaromVisibWave heightAir tempDewpointWater temp
2017-Nov-12 21:01N 36°04' W 005°22'011.1
2017-Nov-12 21:00N 36°04' W 005°22'4 8.9
2017-Nov-12 20:30N 36°01' W 005°19'510.6
2017-Nov-12 20:00N 35°55' W 005°19'2 3.3
2017-Nov-12 19:30N 35°54' W 005°18'0 0.0
2017-Nov-12 19:00N 35°54' W 005°18'0 0.0
2017-Nov-12 18:30N 35°54' W 005°18'0 0.0
2017-Nov-12 18:00N 35°54' W 005°18'0 0.0
2017-Nov-12 17:30N 35°54' W 005°18'0 0.0
2017-Nov-12 17:00N 35°54' W 005°18'0 0.0
2017-Nov-12 16:30N 35°54' W 005°18'0 0.0
2017-Nov-12 16:00N 35°54' W 005°18'0 0.0
2017-Nov-12 15:30N 35°54' W 005°18'0 0.0
2017-Nov-12 15:00N 35°54' W 005°18'0 0.7
2017-Nov-12 14:30N 35°54' W 005°19'2 3.4
2017-Nov-12 13:59N 35°55' W 005°20'0 0.1
2017-Nov-12 13:29N 35°55' W 005°20'0 0.0
2017-Nov-12 12:59N 35°55' W 005°20'0 0.0
2017-Nov-12 12:29N 35°55' W 005°20'0 0.0
2017-Nov-12 11:59N 35°55' W 005°20'0 0.0
2017-Nov-12 11:29N 35°55' W 005°20'0 0.0
2017-Nov-12 10:59N 35°55' W 005°20'0 0.0
2017-Nov-12 10:29N 35°55' W 005°20'0 0.0
2017-Nov-12 09:59N 35°55' W 005°20'0 0.0
2017-Nov-12 09:29N 35°55' W 005°20'0 0.0
2017-Nov-12 08:59N 35°55' W 005°20'0 0.0
2017-Nov-12 08:29N 35°55' W 005°20'0 0.0
2017-Nov-12 07:59N 35°55' W 005°20'0 0.1
2017-Nov-12 07:29N 35°55' W 005°20'0 0.0
2017-Nov-12 06:59N 35°55' W 005°20'0 0.3
2017-Nov-12 06:31N 35°55' W 005°20'4 8.8
2017-Nov-12 06:01N 35°59' W 005°22'6 0.2
2017-Nov-10 21:45N 36°05' W 005°20'310.5
2017-Nov-10 21:30N 36°04' W 005°17'1 1.2
2017-Nov-10 21:00N 36°04' W 005°16'0 0.2
2017-Nov-10 20:30N 36°04' W 005°17'0 0.3
2017-Nov-10 19:57N 36°04' W 005°17'  
2017-Nov-05 01:46N 39°09' W 009°57'2 7.1
2017-Nov-05 01:30N 39°07' W 009°57'4 7.4
2017-Nov-05 01:00N 39°04' W 009°57'4 7.6
2017-Nov-05 00:30N 39°00' W 009°57'4 7.6
2017-Nov-05 00:00N 38°56' W 009°57'4 8.1
2017-Nov-04 23:30N 38°52' W 009°57'4 8.5
2017-Nov-04 23:00N 38°48' W 009°58'4 8.1
2017-Nov-04 22:30N 38°44' W 009°57'4 8.1
2017-Nov-04 22:00N 38°40' W 009°56'4 8.4
2017-Nov-04 21:30N 38°36' W 009°55'4 8.1
2017-Nov-04 21:00N 38°32' W 009°54'4 7.7
2017-Nov-04 20:30N 38°28' W 009°52'  
Track history (hours):
 
Tides and Currents Weather Stations Pressure Air Temp Water Temp Dewpoint Dewpoint Depression Visibility Wind Speed Wind Dir Waves Ship Positions

Umar1

Last reported at 2017-Nov-12 21:01 UTC. Time now 2017-Nov-17 17:50 UTC.
Position N 36°04' W 005°22'.

Length 100 m; draft 4.5 m.

Type: Tanker. MMSI: 248751000.

Date/timePositionNaut miles runAvg speedWind from/ knotsBaromVisibWave heightAir tempDewpointWater temp
2017-Nov-12 21:01N 36°04' W 005°22'011.1
2017-Nov-12 21:00N 36°04' W 005°22'4 8.9
2017-Nov-12 20:30N 36°01' W 005°19'510.6
2017-Nov-12 20:00N 35°55' W 005°19'2 3.3
2017-Nov-12 19:30N 35°54' W 005°18'0 0.0
2017-Nov-12 19:00N 35°54' W 005°18'0 0.0
2017-Nov-12 18:30N 35°54' W 005°18'0 0.0
2017-Nov-12 18:00N 35°54' W 005°18'0 0.0
2017-Nov-12 17:30N 35°54' W 005°18'0 0.0
2017-Nov-12 17:00N 35°54' W 005°18'0 0.0
2017-Nov-12 16:30N 35°54' W 005°18'0 0.0
2017-Nov-12 16:00N 35°54' W 005°18'0 0.0
2017-Nov-12 15:30N 35°54' W 005°18'0 0.0
2017-Nov-12 15:00N 35°54' W 005°18'0 0.7
2017-Nov-12 14:30N 35°54' W 005°19'2 3.4
2017-Nov-12 13:59N 35°55' W 005°20'0 0.1
2017-Nov-12 13:29N 35°55' W 005°20'0 0.0
2017-Nov-12 12:59N 35°55' W 005°20'0 0.0
2017-Nov-12 12:29N 35°55' W 005°20'0 0.0
2017-Nov-12 11:59N 35°55' W 005°20'0 0.0
2017-Nov-12 11:29N 35°55' W 005°20'0 0.0
2017-Nov-12 10:59N 35°55' W 005°20'0 0.0
2017-Nov-12 10:29N 35°55' W 005°20'0 0.0
2017-Nov-12 09:59N 35°55' W 005°20'0 0.0
2017-Nov-12 09:29N 35°55' W 005°20'0 0.0
2017-Nov-12 08:59N 35°55' W 005°20'0 0.0
2017-Nov-12 08:29N 35°55' W 005°20'0 0.0
2017-Nov-12 07:59N 35°55' W 005°20'0 0.1
2017-Nov-12 07:29N 35°55' W 005°20'0 0.0
2017-Nov-12 06:59N 35°55' W 005°20'0 0.3
2017-Nov-12 06:31N 35°55' W 005°20'4 8.8
2017-Nov-12 06:01N 35°59' W 005°22'6 0.2
2017-Nov-10 21:45N 36°05' W 005°20'310.5
2017-Nov-10 21:30N 36°04' W 005°17'1 1.2
2017-Nov-10 21:00N 36°04' W 005°16'0 0.2
2017-Nov-10 20:30N 36°04' W 005°17'0 0.3
2017-Nov-10 19:57N 36°04' W 005°17'  
2017-Nov-05 01:46N 39°09' W 009°57'2 7.1
2017-Nov-05 01:30N 39°07' W 009°57'4 7.4
2017-Nov-05 01:00N 39°04' W 009°57'4 7.6
2017-Nov-05 00:30N 39°00' W 009°57'4 7.6
2017-Nov-05 00:00N 38°56' W 009°57'4 8.1
2017-Nov-04 23:30N 38°52' W 009°57'4 8.5
2017-Nov-04 23:00N 38°48' W 009°58'4 8.1
2017-Nov-04 22:30N 38°44' W 009°57'4 8.1
2017-Nov-04 22:00N 38°40' W 009°56'4 8.4
2017-Nov-04 21:30N 38°36' W 009°55'4 8.1
2017-Nov-04 21:00N 38°32' W 009°54'4 7.7
2017-Nov-04 20:30N 38°28' W 009°52'  

Dump ship's entire track history